createdAt,value
2022-09-17T00:03:59.029Z,1.50
2022-09-17T00:06:26.093Z,1.70
2022-09-17T00:08:53.739Z,1.55
2022-09-17T00:11:24.962Z,1.50
2022-09-17T00:13:53.043Z,1.45
2022-09-17T00:16:25.851Z,1.50
2022-09-17T00:18:52.568Z,1.50
2022-09-17T00:23:46.703Z,1.27
2022-09-17T00:26:13.563Z,1.58
2022-09-17T00:28:41.705Z,1.10
2022-09-17T00:31:09.293Z,1.25
2022-09-17T00:33:36.895Z,1.45
2022-09-17T00:36:05.104Z,1.30
2022-09-17T00:38:32.142Z,1.20
2022-09-17T00:40:58.535Z,1.45
2022-09-17T00:43:41.810Z,1.30
2022-09-17T00:46:26.308Z,1.50
2022-09-17T00:48:54.702Z,1.20
2022-09-17T00:51:29.023Z,1.40
2022-09-17T00:53:56.602Z,1.30
2022-09-17T00:56:27.784Z,1.55
2022-09-17T00:58:55.352Z,1.42
2022-09-17T01:01:21.912Z,1.30
2022-09-17T01:06:17.131Z,1.23
2022-09-17T01:09:13.183Z,1.00
2022-09-17T01:11:58.357Z,1.30
2022-09-17T01:14:51.492Z,0.98
2022-09-17T01:17:36.660Z,1.05
2022-09-17T01:20:41.683Z,1.05
2022-09-17T01:23:28.449Z,0.93
2022-09-17T01:26:33.468Z,1.00
2022-09-17T01:29:34.595Z,0.88
2022-09-17T01:32:14.379Z,1.05
2022-09-17T01:34:58.644Z,1.00
2022-09-17T01:37:43.519Z,1.20
2022-09-17T01:40:24.352Z,0.73
2022-09-17T01:43:14.167Z,0.82
2022-09-17T01:45:50.975Z,0.80
2022-09-17T01:48:30.323Z,1.10
2022-09-17T01:51:05.084Z,0.85
2022-09-17T01:53:51.568Z,0.90
2022-09-17T01:56:26.500Z,0.90
2022-09-17T01:59:01.038Z,0.80
2022-09-17T02:01:31.860Z,0.88
2022-09-17T02:04:06.378Z,0.77
2022-09-17T02:06:38.170Z,0.80
2022-09-17T02:09:16.745Z,0.90
2022-09-17T02:11:47.875Z,1.17
2022-09-17T02:14:21.642Z,0.77
2022-09-17T02:16:55.202Z,1.00
2022-09-17T02:19:27.008Z,0.88
2022-09-17T02:21:58.701Z,0.90
2022-09-17T02:24:31.143Z,0.90
2022-09-17T02:27:05.403Z,0.70
2022-09-17T02:29:38.055Z,0.70
2022-09-17T02:32:05.301Z,0.90
2022-09-17T02:34:32.074Z,0.90
2022-09-17T02:36:59.439Z,0.77
2022-09-17T02:39:27.729Z,0.98
2022-09-17T02:42:23.913Z,1.58
2022-09-17T02:45:09.068Z,1.20
2022-09-17T02:48:03.436Z,1.35
2022-09-17T02:50:44.975Z,1.58
2022-09-17T02:53:11.275Z,0.85
2022-09-17T02:56:02.453Z,0.80
2022-09-17T02:58:47.714Z,0.93
2022-09-17T03:01:30.423Z,1.00
2022-09-17T03:04:01.024Z,1.30
2022-09-17T03:06:27.447Z,0.65
2022-09-17T03:08:54.029Z,1.35
2022-09-17T03:13:48.169Z,1.00
2022-09-17T03:18:41.308Z,1.00
2022-09-17T03:21:08.052Z,0.93
2022-09-17T03:23:34.414Z,1.00
2022-09-17T03:26:01.257Z,1.00
2022-09-17T03:28:27.696Z,0.90
2022-09-17T03:30:54.414Z,1.10
2022-09-17T03:33:21.148Z,0.90
2022-09-17T03:35:47.640Z,1.90
2022-09-17T03:38:14.445Z,1.02
2022-09-17T03:40:40.985Z,1.02
2022-09-17T03:43:08.557Z,0.85
2022-09-17T03:45:35.048Z,1.08
2022-09-17T03:48:01.724Z,1.45
2022-09-17T03:50:28.275Z,1.17
2022-09-17T03:52:54.648Z,1.00
2022-09-17T03:55:21.060Z,1.50
2022-09-17T03:57:47.513Z,0.95
2022-09-17T04:00:17.232Z,1.00
2022-09-17T04:02:43.758Z,1.10
2022-09-17T04:07:37.156Z,0.90
2022-09-17T04:10:05.243Z,1.27
2022-09-17T04:12:32.021Z,1.10
2022-09-17T04:14:58.424Z,1.33
2022-09-17T04:17:24.832Z,0.90
2022-09-17T04:19:51.307Z,1.10
2022-09-17T04:22:17.936Z,0.88
2022-09-17T04:24:44.715Z,0.95
2022-09-17T04:27:11.096Z,0.77
2022-09-17T04:29:37.456Z,1.23
2022-09-17T04:32:04.088Z,1.00
2022-09-17T04:39:26.231Z,0.90
2022-09-17T04:41:52.588Z,0.90
2022-09-17T04:44:19.248Z,1.27
2022-09-17T04:46:45.759Z,0.93
2022-09-17T04:49:12.987Z,1.10
2022-09-17T04:51:39.387Z,1.02
2022-09-17T04:54:05.838Z,1.20
2022-09-17T04:56:32.196Z,1.23
2022-09-17T04:58:58.565Z,1.20
2022-09-17T05:01:25.022Z,1.27
2022-09-17T05:03:51.420Z,1.30
2022-09-17T05:06:17.775Z,1.15
2022-09-17T05:08:44.128Z,1.38
2022-09-17T05:11:11.004Z,1.40
2022-09-17T05:13:37.410Z,1.08
2022-09-17T05:16:03.920Z,2.13
2022-09-17T05:18:31.231Z,1.45
2022-09-17T05:20:57.591Z,1.60
2022-09-17T05:23:24.356Z,1.63
2022-09-17T05:25:50.778Z,2.08
2022-09-17T05:28:17.131Z,1.73
2022-09-17T05:30:43.507Z,1.63
2022-09-17T05:33:09.867Z,1.67
2022-09-17T05:35:36.537Z,1.50
2022-09-17T05:40:32.976Z,2.00
2022-09-17T05:43:05.020Z,1.77
2022-09-17T05:45:34.472Z,2.00
2022-09-17T05:48:02.319Z,1.80
2022-09-17T05:50:29.583Z,2.20
2022-09-17T05:52:56.651Z,2.20
2022-09-17T05:55:24.120Z,1.90
2022-09-17T05:57:51.295Z,2.28
2022-09-17T06:00:18.766Z,1.67
2022-09-17T06:02:45.345Z,1.73
2022-09-17T06:05:12.071Z,2.10
2022-09-17T06:07:39.001Z,2.00
2022-09-17T06:10:08.181Z,1.90
2022-09-17T06:12:35.549Z,2.00
2022-09-17T06:15:03.943Z,2.10
2022-09-17T06:17:36.381Z,1.95
2022-09-17T06:20:04.986Z,1.88
2022-09-17T06:22:31.500Z,2.20
2022-09-17T06:24:59.638Z,1.88
2022-09-17T06:27:31.679Z,2.08
2022-09-17T06:29:58.040Z,2.10
2022-09-17T06:32:27.092Z,2.00
2022-09-17T06:34:53.997Z,1.90
2022-09-17T06:37:20.360Z,2.00
2022-09-17T06:39:46.750Z,2.10
2022-09-17T06:42:13.136Z,2.40
2022-09-17T06:44:40.859Z,2.17
2022-09-17T06:47:07.940Z,2.25
2022-09-17T06:49:34.540Z,2.15
2022-09-17T06:54:28.088Z,2.20
2022-09-17T06:56:54.435Z,1.98
2022-09-17T06:59:20.991Z,2.05
2022-09-17T07:04:14.604Z,2.28
2022-09-17T07:06:43.612Z,2.20
2022-09-17T07:09:11.199Z,2.20
2022-09-17T07:11:38.887Z,2.30
2022-09-17T07:14:06.940Z,2.15
2022-09-17T07:16:36.223Z,2.50
2022-09-17T07:19:03.841Z,2.30
2022-09-17T07:21:30.367Z,2.35
2022-09-17T07:23:56.795Z,1.80
2022-09-17T07:26:23.577Z,2.00
2022-09-17T07:28:50.153Z,2.10
2022-09-17T07:31:17.103Z,2.28
2022-09-17T07:33:44.509Z,2.13
2022-09-17T07:36:13.022Z,2.40
2022-09-17T07:38:39.755Z,2.42
2022-09-17T07:41:13.203Z,2.15
2022-09-17T07:43:40.525Z,2.40
2022-09-17T07:46:09.922Z,2.10
2022-09-17T07:48:36.547Z,2.13
2022-09-17T07:53:29.489Z,2.15
2022-09-17T07:55:58.590Z,2.00
2022-09-17T07:58:30.876Z,2.10
2022-09-17T08:01:05.573Z,2.30
2022-09-17T08:03:32.278Z,1.98
2022-09-17T08:08:36.548Z,1.98
2022-09-17T08:11:08.468Z,1.88
2022-09-17T08:13:35.462Z,1.70
2022-09-17T08:16:07.916Z,1.63
2022-09-17T08:18:36.298Z,1.85
2022-09-17T08:21:05.702Z,2.03
2022-09-17T08:23:35.128Z,1.98
2022-09-17T08:26:01.793Z,1.60
2022-09-17T08:31:04.410Z,1.77
2022-09-17T08:33:32.731Z,1.80
2022-09-17T08:36:02.322Z,1.70
2022-09-17T08:38:33.502Z,1.80
2022-09-17T08:41:10.215Z,1.63
2022-09-17T08:43:44.685Z,1.52
2022-09-17T08:46:11.747Z,1.83
2022-09-17T08:48:56.844Z,1.70
2022-09-17T08:51:48.675Z,1.50
2022-09-17T08:54:42.357Z,1.80
2022-09-17T08:57:33.589Z,1.50
2022-09-17T09:00:14.433Z,2.20
2022-09-17T09:03:11.339Z,1.45
2022-09-17T09:05:50.166Z,1.50
2022-09-17T09:08:26.872Z,1.70
2022-09-17T09:10:56.678Z,2.25
2022-09-17T09:13:28.440Z,2.45
2022-09-17T09:16:11.812Z,1.85
2022-09-17T09:18:40.992Z,1.90
2022-09-17T09:21:24.160Z,1.75
2022-09-17T09:23:59.759Z,1.80
2022-09-17T09:26:38.115Z,1.85
2022-09-17T09:29:35.207Z,2.00
2022-09-17T09:32:16.552Z,1.85
2022-09-17T09:34:45.532Z,1.85
2022-09-17T09:37:26.207Z,1.98
2022-09-17T09:39:55.252Z,1.92
2022-09-17T09:42:30.575Z,1.90
2022-09-17T09:45:04.970Z,2.70
2022-09-17T09:47:50.375Z,2.13
2022-09-17T09:50:38.392Z,2.45
2022-09-17T09:53:32.072Z,2.03
2022-09-17T09:56:25.071Z,2.28
2022-09-17T09:58:51.570Z,2.03
2022-09-17T10:01:20.676Z,1.92
2022-09-17T10:03:51.832Z,1.80
2022-09-17T10:06:19.824Z,1.90
2022-09-17T10:08:51.993Z,2.42
2022-09-17T10:11:24.231Z,2.00
2022-09-17T10:13:50.697Z,2.17
2022-09-17T10:16:17.878Z,2.25
2022-09-17T10:18:45.335Z,2.00
2022-09-17T10:21:19.373Z,2.83
2022-09-17T10:23:46.711Z,1.88
2022-09-17T10:26:30.068Z,2.10
2022-09-17T10:29:02.688Z,2.30
2022-09-17T10:31:48.425Z,2.35
2022-09-17T10:34:30.076Z,1.95
2022-09-17T10:36:57.207Z,1.70
2022-09-17T10:39:38.509Z,1.80
2022-09-17T10:42:11.000Z,1.50
2022-09-17T10:44:38.551Z,1.30
2022-09-17T10:47:11.634Z,1.85
2022-09-17T10:49:42.440Z,1.95
2022-09-17T10:52:32.114Z,1.50
2022-09-17T10:55:01.963Z,1.75
2022-09-17T10:58:07.646Z,1.58
2022-09-17T11:00:34.164Z,1.60
2022-09-17T11:03:35.495Z,1.52
2022-09-17T11:06:32.719Z,1.60
2022-09-17T11:09:20.582Z,1.30
2022-09-17T11:12:00.839Z,1.85
2022-09-17T11:15:02.796Z,1.25
2022-09-17T11:17:43.069Z,1.50
2022-09-17T11:20:21.835Z,1.48
2022-09-17T11:23:03.420Z,1.70
2022-09-17T11:25:38.780Z,1.55
2022-09-17T11:28:18.270Z,1.65
2022-09-17T11:30:47.904Z,1.38
2022-09-17T11:33:39.451Z,1.33
2022-09-17T11:36:15.723Z,1.77
2022-09-17T11:38:48.740Z,1.47
2022-09-17T11:41:19.188Z,1.55
2022-09-17T11:44:15.692Z,1.58
2022-09-17T11:46:46.577Z,1.55
2022-09-17T11:49:28.433Z,1.58
2022-09-17T11:52:24.078Z,1.30
2022-09-17T11:55:09.292Z,1.40
2022-09-17T11:57:41.252Z,1.25
2022-09-17T12:00:19.998Z,1.60
2022-09-17T12:03:01.610Z,1.40
2022-09-17T12:05:37.845Z,1.30
2022-09-17T12:08:25.568Z,1.33
2022-09-17T12:11:01.816Z,1.30
2022-09-17T12:13:52.339Z,1.10
2022-09-17T12:16:26.446Z,1.20
2022-09-17T12:19:05.464Z,1.20
2022-09-17T12:21:39.042Z,1.20
2022-09-17T12:24:16.971Z,1.10
2022-09-17T12:26:55.818Z,1.20
2022-09-17T12:29:40.456Z,1.40
2022-09-17T12:32:24.604Z,1.27
2022-09-17T12:35:03.253Z,1.10
2022-09-17T12:37:54.741Z,1.33
2022-09-17T12:40:45.845Z,1.30
2022-09-17T12:43:34.466Z,1.30
2022-09-17T12:46:25.354Z,1.33
2022-09-17T12:49:29.407Z,1.38
2022-09-17T12:52:03.395Z,1.00
2022-09-17T12:54:54.299Z,1.38
2022-09-17T12:57:20.655Z,1.30
2022-09-17T13:00:01.805Z,1.17
2022-09-17T13:02:43.148Z,1.15
2022-09-17T13:05:39.761Z,1.13
2022-09-17T13:08:12.204Z,1.10
2022-09-17T13:11:00.000Z,1.20
2022-09-17T13:13:43.956Z,0.90
2022-09-17T13:16:21.819Z,1.00
2022-09-17T13:19:35.761Z,0.88
2022-09-17T13:22:09.979Z,1.00
2022-09-17T13:24:37.602Z,1.15
2022-09-17T13:27:05.698Z,1.10
2022-09-17T13:29:47.377Z,1.20
2022-09-17T13:32:32.573Z,1.25
2022-09-17T13:35:11.396Z,0.98
2022-09-17T13:37:44.934Z,1.17
2022-09-17T13:40:24.887Z,1.17
2022-09-17T13:42:55.466Z,1.20
2022-09-17T13:45:23.715Z,1.10
2022-09-17T13:47:50.021Z,1.05
2022-09-17T13:50:34.707Z,1.23
2022-09-17T13:53:13.876Z,1.13
2022-09-17T13:55:43.866Z,1.20
2022-09-17T13:58:12.620Z,1.10
2022-09-17T14:00:49.701Z,1.00
2022-09-17T14:03:28.315Z,0.90
2022-09-17T14:05:55.600Z,1.00
2022-09-17T14:08:31.184Z,1.00
2022-09-17T14:11:00.107Z,1.00
2022-09-17T14:13:42.421Z,1.00
2022-09-17T14:16:42.519Z,1.33
2022-09-17T14:19:30.831Z,0.82
2022-09-17T14:22:13.155Z,1.23
2022-09-17T14:24:42.245Z,1.20
2022-09-17T14:27:14.774Z,1.20
2022-09-17T14:30:05.370Z,1.10
2022-09-17T14:32:35.956Z,0.90
2022-09-17T14:35:15.517Z,0.85
2022-09-17T14:37:46.999Z,1.00
2022-09-17T14:40:18.865Z,0.80
2022-09-17T14:42:48.489Z,0.88
2022-09-17T14:45:23.990Z,0.88
2022-09-17T14:48:20.435Z,1.65
2022-09-17T14:50:46.821Z,1.05
2022-09-17T14:53:18.903Z,1.20
2022-09-17T14:55:50.547Z,1.08
2022-09-17T14:58:30.227Z,0.95
2022-09-17T15:00:56.821Z,1.00
2022-09-17T15:05:51.243Z,0.73
2022-09-17T15:08:23.776Z,1.08
2022-09-17T15:11:09.535Z,1.08
2022-09-17T15:13:49.823Z,1.08
2022-09-17T15:16:20.970Z,1.00
2022-09-17T15:18:52.317Z,0.80
2022-09-17T15:21:39.425Z,0.93
2022-09-17T15:24:27.461Z,1.02
2022-09-17T15:26:58.448Z,0.90
2022-09-17T15:29:30.202Z,0.65
2022-09-17T15:31:56.943Z,0.90
2022-09-17T15:34:23.599Z,0.85
2022-09-17T15:37:05.663Z,0.70
2022-09-17T15:39:40.936Z,2.75
2022-09-17T15:42:19.571Z,1.58
2022-09-17T15:44:46.449Z,0.60
2022-09-17T15:47:50.440Z,1.15
2022-09-17T15:50:40.488Z,1.13
2022-09-17T15:53:09.875Z,0.80
2022-09-17T15:55:40.851Z,0.88
2022-09-17T15:58:27.064Z,0.60
2022-09-17T16:01:29.104Z,1.20
2022-09-17T16:03:58.521Z,1.17
2022-09-17T16:06:27.797Z,1.25
2022-09-17T16:08:56.308Z,1.00
2022-09-17T16:11:25.152Z,0.80
2022-09-17T16:13:54.012Z,1.00
2022-09-17T16:16:22.832Z,1.00
2022-09-17T16:18:50.346Z,0.90
2022-09-17T16:21:18.602Z,1.45
2022-09-17T16:23:45.787Z,0.98
2022-09-17T16:26:28.696Z,1.23
2022-09-17T16:29:02.319Z,1.15
2022-09-17T16:31:29.391Z,1.30
2022-09-17T16:33:55.881Z,0.90
2022-09-17T16:36:22.670Z,1.17
2022-09-17T16:38:49.038Z,0.98
2022-09-17T16:41:15.596Z,1.00
2022-09-17T16:46:13.400Z,0.80
2022-09-17T16:48:41.170Z,0.60
2022-09-17T16:51:14.023Z,0.73
2022-09-17T16:53:40.608Z,0.70
2022-09-17T16:58:37.962Z,0.70
2022-09-17T17:01:08.944Z,0.70
2022-09-17T17:03:35.623Z,1.00
2022-09-17T17:06:02.979Z,1.00
2022-09-17T17:08:32.060Z,0.90
2022-09-17T17:10:58.944Z,0.70
2022-09-17T17:13:27.597Z,0.82
2022-09-17T17:15:54.633Z,0.82
2022-09-17T17:18:21.683Z,0.73
2022-09-17T17:20:48.902Z,0.90
2022-09-17T17:23:15.831Z,0.90
2022-09-17T17:25:42.559Z,0.80
2022-09-17T17:28:10.014Z,0.80
2022-09-17T17:30:38.315Z,0.98
2022-09-17T17:33:05.310Z,0.60
2022-09-17T17:35:31.723Z,0.70
2022-09-17T17:37:58.113Z,0.80
2022-09-17T17:40:24.521Z,0.68
2022-09-17T17:42:54.607Z,0.80
2022-09-17T17:45:21.587Z,0.90
2022-09-17T17:47:48.523Z,0.73
2022-09-17T17:50:15.823Z,1.77
2022-09-17T17:52:47.579Z,1.00
2022-09-17T17:55:15.595Z,1.05
2022-09-17T17:57:41.999Z,1.15
2022-09-17T18:00:09.397Z,0.93
2022-09-17T18:02:40.344Z,1.20
2022-09-17T18:05:07.191Z,1.33
2022-09-17T18:07:33.971Z,1.45
2022-09-17T18:10:00.445Z,0.82
2022-09-17T18:12:27.230Z,0.70
2022-09-17T18:14:53.862Z,0.98
2022-09-17T18:17:20.719Z,1.05
2022-09-17T18:19:47.455Z,0.90
2022-09-17T18:22:14.455Z,1.10
2022-09-17T18:24:41.010Z,0.85
2022-09-17T18:29:34.297Z,1.13
2022-09-17T18:32:00.918Z,0.90
2022-09-17T18:36:54.178Z,1.30
2022-09-17T18:42:09.020Z,1.20
2022-09-17T18:44:35.932Z,1.30
2022-09-17T18:47:02.906Z,1.00
2022-09-17T18:49:29.549Z,1.38
2022-09-17T18:54:23.312Z,2.90
2022-09-17T18:56:50.430Z,1.00
2022-09-17T18:59:17.310Z,1.00
2022-09-17T19:01:44.666Z,0.98
2022-09-17T19:04:11.216Z,1.50
2022-09-17T19:09:06.315Z,1.05
2022-09-17T19:11:35.324Z,0.80
2022-09-17T19:14:02.551Z,1.00
2022-09-17T19:16:29.747Z,1.25
2022-09-17T19:18:56.444Z,0.80
2022-09-17T19:21:23.169Z,1.00
2022-09-17T19:23:51.663Z,1.10
2022-09-17T19:26:26.583Z,0.88
2022-09-17T19:28:54.821Z,1.08
2022-09-17T19:31:21.457Z,1.20
2022-09-17T19:33:48.667Z,1.10
2022-09-17T19:36:17.511Z,1.30
2022-09-17T19:38:45.152Z,1.20
2022-09-17T19:41:14.260Z,1.10
2022-09-17T19:43:41.403Z,1.17
2022-09-17T19:46:11.451Z,1.00
2022-09-17T19:48:47.079Z,1.27
2022-09-17T19:51:14.145Z,1.02
2022-09-17T19:53:42.141Z,1.20
2022-09-17T19:56:18.508Z,1.20
2022-09-17T19:58:46.095Z,1.20
2022-09-17T20:01:13.746Z,1.27
2022-09-17T20:03:41.759Z,1.40
2022-09-17T20:06:10.988Z,1.10
2022-09-17T20:08:46.636Z,1.15
2022-09-17T20:11:14.907Z,1.05
2022-09-17T20:13:41.547Z,1.20
2022-09-17T20:18:39.521Z,1.30
2022-09-17T20:21:10.629Z,1.30
2022-09-17T20:23:37.139Z,1.40
2022-09-17T20:26:04.469Z,1.10
2022-09-17T20:28:31.135Z,1.10
2022-09-17T20:33:35.006Z,1.50
2022-09-17T20:39:10.661Z,1.45
2022-09-17T20:41:16.698Z,1.50
2022-09-17T20:43:45.304Z,1.48
2022-09-17T20:46:13.019Z,1.23
2022-09-17T20:48:40.088Z,1.50
2022-09-17T20:51:15.232Z,1.17
2022-09-17T20:53:43.118Z,1.52
2022-09-17T20:56:11.292Z,1.40
2022-09-17T20:58:45.211Z,1.40
2022-09-17T21:01:18.737Z,1.42
2022-09-17T21:03:46.829Z,1.40
2022-09-17T21:06:26.807Z,1.40
2022-09-17T21:08:54.300Z,1.50
2022-09-17T21:11:22.628Z,1.63
2022-09-17T21:13:49.635Z,1.40
2022-09-17T21:16:17.000Z,1.80
2022-09-17T21:18:44.092Z,1.30
2022-09-17T21:21:14.031Z,1.40
2022-09-17T21:23:41.654Z,1.30
2022-09-17T21:26:15.619Z,1.48
2022-09-17T21:28:44.596Z,1.30
2022-09-17T21:31:17.159Z,1.75
2022-09-17T21:33:45.584Z,1.70
2022-09-17T21:36:13.090Z,2.17
2022-09-17T21:38:41.014Z,1.52
2022-09-17T21:41:14.502Z,1.58
2022-09-17T21:43:42.773Z,1.45
2022-09-17T21:46:12.001Z,1.60
2022-09-17T21:48:45.890Z,1.40
2022-09-17T21:51:15.342Z,1.70
2022-09-17T21:53:42.437Z,1.40
2022-09-17T21:56:14.631Z,1.27
2022-09-17T21:58:43.524Z,1.63
2022-09-17T22:01:13.376Z,1.27
2022-09-17T22:03:40.988Z,1.52
2022-09-17T22:06:11.415Z,1.60
2022-09-17T22:08:39.584Z,1.40
2022-09-17T22:11:16.909Z,1.50
2022-09-17T22:14:04.631Z,1.17
2022-09-17T22:18:59.816Z,1.48
2022-09-17T22:21:28.353Z,1.83
2022-09-17T22:23:57.319Z,1.10
2022-09-17T22:26:25.665Z,1.52
2022-09-17T22:28:53.288Z,1.52
2022-09-17T22:31:20.235Z,1.67
2022-09-17T22:33:50.340Z,1.48
2022-09-17T22:36:22.086Z,1.70
2022-09-17T22:38:50.955Z,1.40
2022-09-17T22:41:22.944Z,1.48
2022-09-17T22:43:53.751Z,1.63
2022-09-17T22:46:23.442Z,1.38
2022-09-17T22:48:50.060Z,1.35
2022-09-17T22:51:16.871Z,1.05
2022-09-17T22:53:43.547Z,1.52
2022-09-17T23:01:11.248Z,1.42
2022-09-17T23:03:38.655Z,1.35
2022-09-17T23:06:12.288Z,1.27
2022-09-17T23:08:39.307Z,1.30
2022-09-17T23:11:07.864Z,1.20
2022-09-17T23:13:35.277Z,1.30
2022-09-17T23:16:07.663Z,1.10
2022-09-17T23:18:35.172Z,1.23
2022-09-17T23:21:06.971Z,2.38
2022-09-17T23:23:34.733Z,1.40
2022-09-17T23:26:07.521Z,1.20
2022-09-17T23:28:35.339Z,1.40
2022-09-17T23:31:12.349Z,1.58
2022-09-17T23:33:39.044Z,1.95
2022-09-17T23:38:34.338Z,1.50
2022-09-17T23:41:18.149Z,1.60
2022-09-17T23:43:47.556Z,1.30
2022-09-17T23:46:14.631Z,1.27
2022-09-17T23:48:41.859Z,1.40
2022-09-17T23:51:08.407Z,1.38
2022-09-17T23:56:03.025Z,1.37
2022-09-17T23:58:30.645Z,1.20
